Flight Track Log - Related Links

Times and Time Zones

All times are in EDT time to prevent confusion due to time zone crossing. See the DAL1890 flight status page for this flight to view local times or setup timezone preferences in your user account.

Time Position Orientation Groundspeed Altitude Reporting Facility
EDT Latitude Longitude Course Direction KTS MPH feet Rate Location/Type
Wed 06:55:11 AM 32.8833 -97.0333 65° Northeast 155 178 1,300  Level Dallas / Fort Worth TRACON
Wed 06:56:05 AM 32.8500 -97.0333 180° South 200 230 2,700 2,158 Climbing Dallas / Fort Worth TRACON
Wed 06:57:00 AM 32.6833 -96.8191 90° East  Level FlightAware Approximate
Wed 06:57:05 AM 32.7833 -97.0333 180° South 250 288 5,400  Level Dallas / Fort Worth TRACON
Wed 06:58:00 AM 32.7207 -96.6881 68° East  Level FlightAware Approximate
Wed 06:58:05 AM 32.7500 -96.9500 115° Southeast 299 344 7,700  Level Dallas / Fort Worth TRACON
Wed 06:59:00 AM 32.7639 -96.5583 68° East  Level FlightAware Approximate
Wed 07:00:00 AM 32.8124 -96.4312 65° Northeast  Level FlightAware Approximate
Wed 07:00:18 AM 32.7897 -96.7436 77° East 301 346 12,000  Level Fort Worth Center
Wed 07:01:18 AM 32.8142 -96.6150 77° East 346 398 14,900 2,600 Climbing Fort Worth Center
Wed 07:02:18 AM 32.8342 -96.5036 78° East 379 436 17,200 2,450 Climbing Fort Worth Center
Wed 07:03:18 AM 32.8603 -96.3647 77° East 384 442 19,800 2,150 Climbing Fort Worth Center
Wed 07:04:18 AM 32.8656 -96.2436 87° East 399 459 21,500 2,000 Climbing Fort Worth Center
Wed 07:05:18 AM 32.8703 -96.0925 88° East 412 474 23,800 1,850 Climbing Fort Worth Center
Wed 07:06:18 AM 32.8731 -95.9664 88° East 418 481 25,200 1,700 Climbing Fort Worth Center
Wed 07:07:18 AM 32.8753 -95.8081 89° East 428 493 27,200 1,900 Climbing Fort Worth Center
Wed 07:08:18 AM 32.8758 -95.6819 90° East 422 486 29,000 1,500 Climbing Fort Worth Center
Wed 07:09:18 AM 32.8756 -95.5261 90° East 423 487 30,200 1,400 Climbing Fort Worth Center
Wed 07:10:18 AM 32.8817 -95.3850 87° East 423 487 31,800 1,400 Climbing Fort Worth Center
Wed 07:11:18 AM 32.8983 -95.2436 82° East 423 487 33,000 900 Climbing Fort Worth Center
Wed 07:12:18 AM 32.9208 -95.1019 79° East 423 487 33,600 850 Climbing Fort Worth Center
Wed 07:13:18 AM 32.9389 -94.9556 82° East 434 499 34,700 1,150 Climbing Fort Worth Center
Wed 07:14:18 AM 32.9567 -94.8114 82° East 434 499 35,900 900 Climbing Fort Worth Center
Wed 07:15:18 AM 32.9767 -94.6672 81° East 434 499 36,500 550 Climbing Fort Worth Center
Wed 07:16:18 AM 32.9944 -94.5231 82° East 434 499 37,000 250 Climbing Fort Worth Center
Wed 07:17:18 AM 33.0158 -94.3736 80° East 446 513 37,000  Level Fort Worth Center
Wed 07:18:18 AM 33.0331 -94.2219 82° East 451 519 37,000  Level Fort Worth Center
Wed 07:19:18 AM 33.0519 -94.0725 81° East 451 519 37,000  Level Fort Worth Center
Wed 07:20:18 AM 33.0689 -93.9231 82° East 451 519 37,000  Level Fort Worth Center
Wed 07:21:18 AM 33.0897 -93.7711 81° East 451 519 37,000  Level Fort Worth Center
Wed 07:22:18 AM 33.1083 -93.6242 81° East 451 519 37,000  Level Fort Worth Center
Wed 07:23:18 AM 33.1264 -93.4719 82° East 451 519 37,000  Level Fort Worth Center
Wed 07:24:18 AM 33.1467 -93.3222 81° East 451 519 37,000  Level Fort Worth Center
Wed 07:25:18 AM 33.1628 -93.1753 82° East 451 519 37,000  Level Fort Worth Center
Wed 07:26:18 AM 33.1828 -93.0303 81° East 451 519 37,000  Level Fort Worth Center
Wed 07:27:18 AM 33.2006 -92.8806 82° East 451 519 37,000  Level Fort Worth Center
Wed 07:28:18 AM 33.2178 -92.7306 82° East 451 519 37,000  Level Fort Worth Center
Wed 07:29:18 AM 33.2333 -92.5833 83° East 451 519 37,000  Level Fort Worth Center
Wed 07:30:18 AM 33.2525 -92.4358 81° East 451 519 37,000  Level Fort Worth Center
Wed 07:31:45 AM 33.2717 -92.2381 83° East 459 528 37,000  Level Memphis Center
Wed 07:32:45 AM 33.2903 -92.0919 81° East 454 522 37,000  Level Memphis Center
Wed 07:33:45 AM 33.3050 -91.9431 83° East 454 522 37,000  Level Memphis Center
Wed 07:34:45 AM 33.3214 -91.7942 82° East 448 516 37,000  Level Memphis Center
Wed 07:35:45 AM 33.3314 -91.6328 86° East 440 506 37,000  Level Memphis Center
Wed 07:36:45 AM 33.3453 -91.4836 84° East 445 512 37,000  Level Memphis Center
Wed 07:37:45 AM 33.3611 -91.3372 83° East 445 512 37,000  Level Memphis Center
Wed 07:38:45 AM 33.3789 -91.1881 82° East 445 512 37,000  Level Memphis Center
Wed 07:39:45 AM 33.3922 -91.0439 84° East 445 512 37,000  Level Memphis Center
Wed 07:40:45 AM 33.4056 -90.8922 84° East 445 512 37,000  Level Memphis Center
Wed 07:41:45 AM 33.4186 -90.7406 84° East 445 512 37,000  Level Memphis Center
Wed 07:42:45 AM 33.4336 -90.5911 83° East 445 512 37,000  Level Memphis Center
Wed 07:43:45 AM 33.4483 -90.4419 83° East 445 512 37,000  Level Memphis Center
Wed 07:44:45 AM 33.4611 -90.2900 84° East 445 512 37,000  Level Memphis Center
Wed 07:45:45 AM 33.4544 -90.1406 93° East 445 512 37,000  Level Memphis Center
Wed 07:46:45 AM 33.4458 -89.9911 94° East 445 512 37,000  Level Memphis Center
Wed 07:47:45 AM 33.4369 -89.8394 94° East 445 512 37,000  Level Memphis Center
Wed 07:48:45 AM 33.4278 -89.6903 94° East 445 512 37,000  Level Memphis Center
Wed 07:49:45 AM 33.4164 -89.5383 95° East 445 512 37,000  Level Memphis Center
Wed 07:50:45 AM 33.4069 -89.3867 94° East 445 512 37,000  Level Memphis Center
Wed 07:51:45 AM 33.3786 -89.2403 103° East 445 512 37,000  Level Memphis Center
Wed 07:52:45 AM 33.3356 -89.0992 110° East 445 512 37,000  Level Memphis Center
Wed 07:53:45 AM 33.2925 -88.9606 110° East 445 512 37,000  Level Memphis Center
Wed 07:54:45 AM 33.2467 -88.8147 111° Southeast 452 520 37,000  Level Memphis Center
Wed 07:55:45 AM 33.2011 -88.6739 111° Southeast 452 520 37,000  Level Memphis Center
Wed 07:56:45 AM 33.1553 -88.5308 111° Southeast 452 520 37,000  Level Memphis Center
Wed 07:57:45 AM 33.1114 -88.3906 110° East 452 520 37,000  Level Memphis Center
Wed 08:00:04 AM 33.0058 -88.0786 112° Southeast 456 525 37,000  Level Atlanta Center
Wed 08:01:04 AM 32.9625 -87.9331 110° East 456 525 37,000  Level Atlanta Center
Wed 08:02:04 AM 32.9169 -87.7875 110° East 461 531 37,000  Level Atlanta Center
Wed 08:03:04 AM 32.8711 -87.6447 111° Southeast 461 531 37,000  Level Atlanta Center
Wed 08:04:04 AM 32.8208 -87.5017 113° Southeast 461 531 37,000  Level Atlanta Center
Wed 08:05:04 AM 32.7750 -87.3542 110° East 461 531 37,000  Level Atlanta Center
Wed 08:06:04 AM 32.7244 -87.2092 112° Southeast 461 531 37,000  Level Atlanta Center
Wed 08:07:04 AM 32.6781 -87.0667 111° Southeast 456 525 37,000 -1,050 Level Atlanta Center
Wed 08:08:04 AM 32.6608 -86.9108 97° East 461 531 34,900 -1,800 Descending Atlanta Center
Wed 08:09:04 AM 32.6936 -86.7514 76° East 461 531 33,400 -2,000 Descending Atlanta Center
Wed 08:10:04 AM 32.7281 -86.6019 75° East 468 539 30,900 -2,400 Descending Atlanta Center
Wed 08:11:04 AM 32.7669 -86.4425 74° East 463 533 28,600 -1,650 Descending Atlanta Center
Wed 08:12:04 AM 32.8031 -86.2878 74° East 463 533 27,600 -1,000 Descending Atlanta Center
Wed 08:13:04 AM 32.8347 -86.1475 75° East 463 533 26,600 -950 Descending Atlanta Center
Wed 08:14:04 AM 32.8686 -86.0050 74° East 450 518 25,700 -950 Descending Atlanta Center
Wed 08:15:04 AM 32.9103 -85.8697 70° East 437 503 24,700 -950 Descending Atlanta Center
Wed 08:16:04 AM 32.9539 -85.7369 69° East 426 490 23,800 -1,300 Descending Atlanta Center
Wed 08:17:04 AM 32.9953 -85.6042 70° East 426 490 22,100 -2,050 Descending Atlanta Center
Wed 08:18:04 AM 33.0386 -85.4811 67° East 416 479 19,700 -2,200 Descending Atlanta Center
Wed 08:19:04 AM 33.0775 -85.3628 69° East 392 451 17,700 -2,150 Descending Atlanta Center
Wed 08:20:04 AM 33.1142 -85.2492 69° East 378 435 15,400 -2,250 Descending Atlanta Center
Wed 08:21:04 AM 33.1486 -85.1381 70° East 363 418 13,200 -1,650 Descending Atlanta Center
Wed 08:22:04 AM 33.1828 -85.0392 68° East 340 391 12,100 -650 Descending Atlanta Center
Wed 08:23:04 AM 33.2314 -84.9675 51° Northeast 295 339 11,900 -950 Descending Atlanta Center
Wed 08:24:04 AM 33.2778 -84.9061 48° Northeast 259 298 10,200 -1,700 Descending Atlanta Center
Wed 08:25:04 AM 33.3242 -84.8467 47° Northeast 239 275 8,500 -1,400 Descending Atlanta Center
Wed 08:26:04 AM 33.3619 -84.7875 53° Northeast 234 269 7,400 -1,350 Descending Atlanta Center
Wed 08:27:04 AM 33.4144 -84.7581 25° Northeast 212 244 5,800 -1,630 Descending Atlanta Center
Wed 08:27:25 AM 33.4333 -84.7667 339° North 252 290 5,200 -667 Descending Atlanta TRACON
Wed 08:28:25 AM 33.4833 -84.8333 312° West 253 291 4,900 -571 Descending Atlanta TRACON
Wed 08:29:31 AM 33.5167 -84.9000 301° West 238 274 4,000 -545 Descending Atlanta TRACON
Wed 08:30:04 AM 33.5492 -84.9136 341° North 234 269 4,000  Level Atlanta Center
Wed 08:32:26 AM 33.6167 -84.8333 45° Northeast 172 198 4,000  Level Atlanta TRACON
Wed 08:33:25 AM 33.6167 -84.7667 90° East 174 200 4,000  Level Atlanta TRACON
Wed 08:34:25 AM 33.6167 -84.7167 90° East 171 197 4,000  Level Atlanta TRACON
Wed 08:35:25 AM 33.6167 -84.6667 90° East 171 197 4,000 -200 Level Atlanta TRACON
Wed 08:36:25 AM 33.6167 -84.6000 90° East 170 196 3,600 -700 Descending Atlanta TRACON
Wed 08:37:25 AM 33.6167 -84.5500 90° East 173 199 2,600 -1,000 Descending Atlanta TRACON

Login

Don't have an account? Register now (free) for customized features, flight alerts, and more!